createdAt,value
2024-05-09T00:01:20.781Z,54.60
2024-05-09T00:03:53.131Z,54.60
2024-05-09T00:06:26.718Z,54.40
2024-05-09T00:08:59.135Z,54.60
2024-05-09T00:11:31.703Z,54.60
2024-05-09T00:14:04.229Z,54.80
2024-05-09T00:16:36.980Z,54.80
2024-05-09T00:19:09.296Z,54.90
2024-05-09T00:21:45.194Z,55.00
2024-05-09T00:24:17.612Z,54.80
2024-05-09T00:26:49.932Z,55.30
2024-05-09T00:29:22.211Z,54.90
2024-05-09T00:31:54.652Z,55.00
2024-05-09T00:34:27.085Z,54.90
2024-05-09T00:36:59.526Z,55.00
2024-05-09T00:39:31.760Z,54.90
2024-05-09T00:42:04.361Z,54.80
2024-05-09T00:44:37.306Z,54.70
2024-05-09T00:47:10.335Z,54.70
2024-05-09T00:49:43.052Z,54.70
2024-05-09T00:52:15.841Z,54.80
2024-05-09T00:54:48.448Z,54.90
2024-05-09T00:57:21.526Z,55.00
2024-05-09T00:59:54.783Z,55.10
2024-05-09T01:02:28.650Z,55.10
2024-05-09T01:05:01.393Z,55.20
2024-05-09T01:07:33.779Z,55.20
2024-05-09T01:10:11.737Z,55.30
2024-05-09T01:12:49.754Z,55.40
2024-05-09T01:15:22.070Z,55.50
2024-05-09T01:17:56.546Z,55.50
2024-05-09T01:20:39.538Z,55.40
2024-05-09T01:23:16.549Z,55.50
2024-05-09T01:25:49.628Z,55.50
2024-05-09T01:28:21.870Z,55.50
2024-05-09T01:30:54.886Z,55.60
2024-05-09T01:33:27.502Z,55.80
2024-05-09T01:36:00.007Z,56.20
2024-05-09T01:38:32.421Z,55.90
2024-05-09T01:41:04.936Z,55.80
2024-05-09T01:43:37.190Z,55.90
2024-05-09T01:46:16.011Z,55.70
2024-05-09T01:48:48.339Z,55.80
2024-05-09T01:51:20.635Z,56.40
2024-05-09T01:53:55.068Z,57.00
2024-05-09T01:56:27.659Z,57.80
2024-05-09T01:59:00.349Z,58.50
2024-05-09T02:01:55.418Z,59.00
2024-05-09T02:04:25.060Z,59.80
2024-05-09T02:06:57.394Z,60.40
2024-05-09T02:09:30.421Z,61.10
2024-05-09T02:12:03.622Z,61.50
2024-05-09T02:14:36.004Z,62.10
2024-05-09T02:17:08.491Z,62.30
2024-05-09T02:19:40.796Z,62.40
2024-05-09T02:22:13.880Z,62.80
2024-05-09T02:24:46.196Z,63.40
2024-05-09T02:27:18.821Z,63.80
2024-05-09T02:29:51.137Z,63.40
2024-05-09T02:32:23.512Z,63.50
2024-05-09T02:34:56.397Z,63.50
2024-05-09T02:37:28.733Z,63.40
2024-05-09T02:40:01.290Z,63.40
2024-05-09T02:42:34.260Z,63.70
2024-05-09T02:45:07.530Z,64.40
2024-05-09T02:47:39.960Z,64.70
2024-05-09T02:52:45.774Z,65.00
2024-05-09T02:55:18.219Z,65.00
2024-05-09T02:57:50.531Z,65.00
2024-05-09T03:00:26.706Z,66.10
2024-05-09T03:03:09.585Z,66.20
2024-05-09T03:05:44.056Z,66.40
2024-05-09T03:08:16.628Z,66.80
2024-05-09T03:10:48.953Z,66.70
2024-05-09T03:13:21.480Z,66.50
2024-05-09T03:15:54.292Z,66.60
2024-05-09T03:18:26.771Z,67.40
2024-05-09T03:21:03.670Z,67.70
2024-05-09T03:23:42.746Z,67.70
2024-05-09T03:26:19.526Z,67.30
2024-05-09T03:28:56.633Z,67.40
2024-05-09T03:31:30.441Z,67.40
2024-05-09T03:34:03.238Z,67.40
2024-05-09T03:36:41.946Z,68.30
2024-05-09T03:39:15.947Z,68.90
2024-05-09T03:41:48.733Z,69.10
2024-05-09T03:44:24.096Z,69.40
2024-05-09T03:46:56.608Z,69.00
2024-05-09T03:49:29.571Z,68.70
2024-05-09T03:52:07.367Z,68.60
2024-05-09T03:54:48.097Z,68.10
2024-05-09T03:57:21.713Z,68.00
2024-05-09T03:59:56.858Z,65.80
2024-05-09T04:02:32.712Z,66.10
2024-05-09T04:05:07.594Z,66.50
2024-05-09T04:07:43.808Z,67.30
2024-05-09T04:10:27.743Z,65.20
2024-05-09T04:13:06.216Z,64.50
2024-05-09T04:15:45.555Z,63.60
2024-05-09T04:18:19.780Z,62.60
2024-05-09T04:20:54.279Z,61.90
2024-05-09T04:23:26.723Z,60.00
2024-05-09T04:25:59.278Z,60.60
2024-05-09T04:28:34.122Z,59.90
2024-05-09T04:31:06.893Z,58.60
2024-05-09T04:33:40.702Z,58.90
2024-05-09T04:36:14.531Z,58.60
2024-05-09T04:38:52.384Z,58.30
2024-05-09T04:41:30.953Z,57.50
2024-05-09T04:44:09.415Z,55.60
2024-05-09T04:46:42.068Z,53.70
2024-05-09T04:49:17.347Z,53.10
2024-05-09T04:51:50.535Z,52.20
2024-05-09T04:54:33.659Z,51.50
2024-05-09T04:57:09.662Z,51.10
2024-05-09T04:59:42.092Z,50.40
2024-05-09T05:02:20.295Z,50.30
2024-05-09T05:04:57.303Z,49.70
2024-05-09T05:07:36.011Z,49.70
2024-05-09T05:10:17.923Z,49.10
2024-05-09T05:13:15.672Z,48.90
2024-05-09T05:15:49.304Z,49.00
2024-05-09T05:18:25.370Z,48.50
2024-05-09T05:21:00.536Z,48.30
2024-05-09T05:23:33.458Z,48.30
2024-05-09T05:26:08.143Z,47.50
2024-05-09T05:28:41.056Z,47.50
2024-05-09T05:31:15.617Z,47.20
2024-05-09T05:33:49.813Z,47.20
2024-05-09T05:36:24.346Z,47.10
2024-05-09T05:38:57.859Z,47.20
2024-05-09T05:41:30.294Z,46.40
2024-05-09T05:44:03.297Z,46.50
2024-05-09T05:46:35.680Z,46.00
2024-05-09T05:49:08.689Z,45.70
2024-05-09T05:51:41.194Z,45.10
2024-05-09T05:54:16.267Z,45.50
2024-05-09T05:56:48.957Z,45.50
2024-05-09T05:59:29.127Z,45.00
2024-05-09T06:02:02.086Z,45.30
2024-05-09T06:04:34.784Z,45.00
2024-05-09T06:07:07.804Z,45.50
2024-05-09T06:09:40.034Z,45.00
2024-05-09T06:12:13.590Z,45.90
2024-05-09T06:14:49.496Z,46.00
2024-05-09T06:17:25.183Z,46.60
2024-05-09T06:20:00.506Z,46.10
2024-05-09T06:22:34.374Z,46.20
2024-05-09T06:25:07.670Z,46.10
2024-05-09T06:27:41.807Z,46.20
2024-05-09T06:30:25.631Z,45.80
2024-05-09T06:33:06.482Z,45.80
2024-05-09T06:35:39.821Z,45.90
2024-05-09T06:38:12.956Z,45.50
2024-05-09T06:40:47.095Z,45.20
2024-05-09T06:43:20.662Z,45.00
2024-05-09T06:45:54.153Z,45.20
2024-05-09T06:48:29.884Z,44.70
2024-05-09T06:51:02.475Z,44.60
2024-05-09T06:53:35.945Z,44.90
2024-05-09T06:56:11.575Z,44.90
2024-05-09T06:58:44.910Z,44.70
2024-05-09T07:01:17.668Z,44.80
2024-05-09T07:03:52.571Z,44.50
2024-05-09T07:06:25.307Z,43.70
2024-05-09T07:08:58.136Z,44.20
2024-05-09T07:11:33.592Z,43.70
2024-05-09T07:14:06.013Z,43.70
2024-05-09T07:16:38.745Z,43.40
2024-05-09T07:19:12.227Z,43.40
2024-05-09T07:21:46.044Z,43.10
2024-05-09T07:24:30.399Z,43.20
2024-05-09T07:27:03.060Z,43.20
2024-05-09T07:29:38.557Z,43.00
2024-05-09T07:32:12.548Z,43.50
2024-05-09T07:34:45.617Z,43.30
2024-05-09T07:37:18.231Z,42.70
2024-05-09T07:39:50.680Z,42.80
2024-05-09T07:42:24.320Z,42.50
2024-05-09T07:45:11.201Z,42.50
2024-05-09T07:49:13.640Z,42.90
2024-05-09T07:53:39.483Z,42.70
2024-05-09T07:56:21.241Z,41.90
2024-05-09T07:58:55.708Z,42.30
2024-05-09T08:01:29.781Z,42.50
2024-05-09T08:04:07.496Z,42.20
2024-05-09T08:06:39.984Z,41.90
2024-05-09T08:09:16.789Z,42.30
2024-05-09T08:11:53.750Z,42.20
2024-05-09T08:14:27.247Z,42.00
2024-05-09T08:16:59.779Z,42.30
2024-05-09T08:19:32.388Z,41.60
2024-05-09T08:22:07.843Z,41.80
2024-05-09T08:24:42.146Z,41.80
2024-05-09T08:27:14.560Z,41.50
2024-05-09T08:29:47.487Z,40.90
2024-05-09T08:32:19.926Z,41.20
2024-05-09T08:34:52.227Z,41.10
2024-05-09T08:37:31.048Z,41.20
2024-05-09T08:40:33.314Z,41.40
2024-05-09T08:43:12.076Z,40.80
2024-05-09T08:45:47.176Z,41.30
2024-05-09T08:48:20.785Z,40.90
2024-05-09T08:50:55.185Z,40.20
2024-05-09T08:53:28.860Z,40.60
2024-05-09T08:56:03.673Z,40.20
2024-05-09T08:58:45.556Z,40.70
2024-05-09T09:01:19.315Z,40.50
2024-05-09T09:03:53.515Z,40.70
2024-05-09T09:06:27.788Z,40.50
2024-05-09T09:09:03.368Z,40.60
2024-05-09T09:11:35.966Z,40.40
2024-05-09T09:14:08.416Z,40.00
2024-05-09T09:16:41.370Z,40.20
2024-05-09T09:19:16.736Z,40.60
2024-05-09T09:21:49.806Z,40.90
2024-05-09T09:24:25.334Z,40.10
2024-05-09T09:26:59.586Z,40.20
2024-05-09T09:29:33.752Z,39.50
2024-05-09T09:32:08.889Z,40.00
2024-05-09T09:34:41.881Z,39.80
2024-05-09T09:37:22.281Z,39.60
2024-05-09T09:39:56.322Z,39.20
2024-05-09T09:42:31.121Z,39.00
2024-05-09T09:45:05.876Z,39.00
2024-05-09T09:47:44.033Z,39.50
2024-05-09T09:50:24.097Z,39.20
2024-05-09T09:53:04.913Z,38.80
2024-05-09T09:55:42.213Z,38.50
2024-05-09T09:58:17.760Z,38.30
2024-05-09T10:00:52.892Z,38.60
2024-05-09T10:03:29.633Z,38.20
2024-05-09T10:06:04.184Z,37.80
2024-05-09T10:08:43.867Z,38.00
2024-05-09T10:11:19.994Z,37.60
2024-05-09T10:13:54.959Z,37.70
2024-05-09T10:16:31.378Z,37.10
2024-05-09T10:19:04.846Z,37.80
2024-05-09T10:21:35.985Z,37.80
2024-05-09T10:24:18.867Z,36.60
2024-05-09T10:26:55.138Z,37.40
2024-05-09T10:29:27.705Z,37.40
2024-05-09T10:32:03.095Z,37.50
2024-05-09T10:34:37.868Z,37.30
2024-05-09T10:37:13.437Z,37.60
2024-05-09T10:39:45.862Z,37.70
2024-05-09T10:42:19.634Z,37.30
2024-05-09T10:44:54.004Z,36.80
2024-05-09T10:47:27.721Z,36.90
2024-05-09T10:50:07.730Z,37.60
2024-05-09T10:52:42.636Z,36.60
2024-05-09T10:55:15.504Z,36.60
2024-05-09T10:57:48.115Z,36.20
2024-05-09T11:00:27.532Z,36.40
2024-05-09T11:03:07.084Z,37.00
2024-05-09T11:05:43.411Z,37.00
2024-05-09T11:08:16.344Z,36.70
2024-05-09T11:10:53.556Z,37.00
2024-05-09T11:13:33.265Z,37.40
2024-05-09T11:16:07.596Z,37.20
2024-05-09T11:18:40.641Z,36.60
2024-05-09T11:21:15.894Z,36.70
2024-05-09T11:23:49.125Z,36.70
2024-05-09T11:26:23.082Z,37.00
2024-05-09T11:28:55.483Z,36.60
2024-05-09T11:31:30.201Z,36.30
2024-05-09T11:34:05.962Z,37.00
2024-05-09T11:36:38.976Z,37.30
2024-05-09T11:39:10.050Z,37.70
2024-05-09T11:41:42.363Z,36.00
2024-05-09T11:44:14.870Z,37.60
2024-05-09T11:46:48.380Z,37.20
2024-05-09T11:49:25.441Z,37.30
2024-05-09T11:52:00.305Z,37.90
2024-05-09T11:54:32.936Z,37.70
2024-05-09T11:57:06.846Z,37.70
2024-05-09T11:59:39.125Z,37.50
2024-05-09T12:02:15.025Z,37.80
2024-05-09T12:04:48.723Z,37.60
2024-05-09T12:07:21.827Z,38.00
2024-05-09T12:09:56.922Z,38.50
2024-05-09T12:12:29.937Z,38.40
2024-05-09T12:15:04.929Z,37.90
2024-05-09T12:17:37.611Z,37.80
2024-05-09T12:20:21.100Z,37.90
2024-05-09T12:23:02.339Z,37.10
2024-05-09T12:25:34.690Z,37.20
2024-05-09T12:28:08.809Z,37.20
2024-05-09T12:30:41.908Z,36.90
2024-05-09T12:33:15.586Z,37.30
2024-05-09T12:35:52.762Z,37.20
2024-05-09T12:38:25.200Z,37.40
2024-05-09T12:40:58.073Z,37.70
2024-05-09T12:43:30.780Z,38.10
2024-05-09T12:46:04.686Z,37.80
2024-05-09T12:48:40.061Z,38.10
2024-05-09T12:51:13.036Z,37.90
2024-05-09T12:53:47.767Z,37.30
2024-05-09T12:56:20.119Z,37.50
2024-05-09T12:58:53.723Z,37.80
2024-05-09T13:01:28.385Z,37.80
2024-05-09T13:04:06.693Z,37.40
2024-05-09T13:06:39.269Z,37.30
2024-05-09T13:09:11.994Z,37.90
2024-05-09T13:11:44.503Z,37.90
2024-05-09T13:14:18.311Z,37.40
2024-05-09T13:16:52.484Z,37.70
2024-05-09T13:19:25.002Z,37.20
2024-05-09T13:22:00.907Z,37.80
2024-05-09T13:24:36.666Z,37.20
2024-05-09T13:27:09.843Z,37.20
2024-05-09T13:29:44.334Z,36.90
2024-05-09T13:32:19.176Z,37.40
2024-05-09T13:34:51.692Z,37.90
2024-05-09T13:37:24.785Z,38.10
2024-05-09T13:40:00.201Z,37.20
2024-05-09T13:42:33.278Z,37.20
2024-05-09T13:45:10.475Z,37.00
2024-05-09T13:47:43.221Z,37.00
2024-05-09T13:50:27.526Z,37.50
2024-05-09T13:53:07.951Z,37.00
2024-05-09T13:55:43.502Z,37.00
2024-05-09T13:58:16.258Z,37.70
2024-05-09T14:00:50.801Z,37.40
2024-05-09T14:03:34.278Z,37.60
2024-05-09T14:06:12.089Z,36.90
2024-05-09T14:08:45.674Z,37.30
2024-05-09T14:11:23.651Z,37.30
2024-05-09T14:13:56.896Z,36.90
2024-05-09T14:16:31.008Z,37.10
2024-05-09T14:19:05.528Z,37.00
2024-05-09T14:21:38.731Z,37.00
2024-05-09T14:24:11.754Z,37.00
2024-05-09T14:26:45.419Z,36.90
2024-05-09T14:29:17.887Z,37.10
2024-05-09T14:31:50.791Z,36.90
2024-05-09T14:34:23.736Z,37.00
2024-05-09T14:36:56.333Z,37.40
2024-05-09T14:39:29.332Z,37.20
2024-05-09T14:42:01.579Z,37.00
2024-05-09T14:44:34.104Z,36.90
2024-05-09T14:47:06.919Z,37.10
2024-05-09T14:49:40.076Z,36.90
2024-05-09T14:52:12.619Z,36.60
2024-05-09T14:54:45.689Z,37.30
2024-05-09T14:57:18.374Z,36.90
2024-05-09T14:59:50.737Z,36.90
2024-05-09T15:02:24.941Z,37.00
2024-05-09T15:05:00.049Z,37.30
2024-05-09T15:07:32.921Z,37.20
2024-05-09T15:10:16.477Z,37.50
2024-05-09T15:12:56.863Z,37.80
2024-05-09T15:15:29.807Z,37.20
2024-05-09T15:18:06.782Z,37.30
2024-05-09T15:20:41.027Z,37.30
2024-05-09T15:23:18.919Z,38.10
2024-05-09T15:25:51.695Z,37.30
2024-05-09T15:28:28.804Z,37.20
2024-05-09T15:31:04.713Z,37.30
2024-05-09T15:33:48.302Z,37.60
2024-05-09T15:36:24.879Z,37.40
2024-05-09T15:39:02.939Z,37.30
2024-05-09T15:41:35.963Z,37.50
2024-05-09T15:44:08.850Z,37.50
2024-05-09T15:46:41.415Z,37.40
2024-05-09T15:49:17.019Z,37.40
2024-05-09T15:51:52.666Z,37.40
2024-05-09T15:54:25.628Z,37.50
2024-05-09T15:56:58.285Z,37.60
2024-05-09T15:59:31.081Z,37.80
2024-05-09T16:02:03.655Z,37.40
2024-05-09T16:04:45.808Z,37.80
2024-05-09T16:07:18.368Z,38.00
2024-05-09T16:09:52.907Z,37.70
2024-05-09T16:12:26.079Z,37.60
2024-05-09T16:14:57.772Z,37.50
2024-05-09T16:17:30.433Z,37.10
2024-05-09T16:20:03.836Z,37.70
2024-05-09T16:22:37.591Z,37.80
2024-05-09T16:25:10.602Z,38.10
2024-05-09T16:27:41.482Z,38.30
2024-05-09T16:30:21.267Z,38.50
2024-05-09T16:33:00.584Z,38.40
2024-05-09T16:35:34.458Z,38.10
2024-05-09T16:38:07.654Z,38.00
2024-05-09T16:40:41.522Z,37.90
2024-05-09T16:43:15.514Z,38.00
2024-05-09T16:45:46.378Z,38.30
2024-05-09T16:48:19.050Z,37.90
2024-05-09T16:50:51.440Z,38.30
2024-05-09T16:53:25.592Z,38.40
2024-05-09T16:55:58.038Z,38.10
2024-05-09T16:58:30.861Z,37.80
2024-05-09T17:01:03.340Z,38.00
2024-05-09T17:03:36.253Z,37.90
2024-05-09T17:06:10.904Z,37.80
2024-05-09T17:08:43.727Z,37.90
2024-05-09T17:11:16.321Z,37.80
2024-05-09T17:13:49.036Z,37.70
2024-05-09T17:16:21.888Z,37.90
2024-05-09T17:18:54.554Z,38.20
2024-05-09T17:21:26.907Z,38.00
2024-05-09T17:23:59.186Z,38.60
2024-05-09T17:26:32.468Z,39.20
2024-05-09T17:29:07.261Z,39.50
2024-05-09T17:31:40.499Z,40.10
2024-05-09T17:34:13.888Z,40.40
2024-05-09T17:36:47.088Z,40.80
2024-05-09T17:39:19.358Z,40.90
2024-05-09T17:41:51.652Z,41.10
2024-05-09T17:44:24.710Z,41.20
2024-05-09T17:46:57.089Z,41.50
2024-05-09T17:49:30.376Z,41.50
2024-05-09T17:52:03.501Z,41.80
2024-05-09T17:54:34.258Z,41.80
2024-05-09T17:57:09.180Z,42.60
2024-05-09T17:59:41.615Z,41.90
2024-05-09T18:02:14.832Z,42.00
2024-05-09T18:04:47.875Z,42.10
2024-05-09T18:07:21.010Z,42.30
2024-05-09T18:09:51.764Z,42.30
2024-05-09T18:12:25.096Z,43.20
2024-05-09T18:14:58.008Z,42.80
2024-05-09T18:17:30.617Z,43.00
2024-05-09T18:20:05.221Z,43.00
2024-05-09T18:22:38.151Z,43.10
2024-05-09T18:25:11.256Z,43.20
2024-05-09T18:27:42.117Z,43.50
2024-05-09T18:30:24.121Z,44.70
2024-05-09T18:33:05.415Z,43.80
2024-05-09T18:35:39.117Z,44.00
2024-05-09T18:38:11.706Z,44.00
2024-05-09T18:40:48.196Z,44.00
2024-05-09T18:43:28.708Z,44.20
2024-05-09T18:46:08.292Z,44.60
2024-05-09T18:48:41.004Z,44.90
2024-05-09T18:51:14.581Z,45.20
2024-05-09T18:53:46.801Z,45.50
2024-05-09T18:56:19.514Z,45.60
2024-05-09T18:58:51.860Z,46.00
2024-05-09T19:01:25.182Z,46.40
2024-05-09T19:03:57.947Z,46.50
2024-05-09T19:06:30.768Z,46.90
2024-05-09T19:09:03.473Z,47.20
2024-05-09T19:11:40.273Z,47.40
2024-05-09T19:14:12.662Z,47.80
2024-05-09T19:16:45.480Z,48.30
2024-05-09T19:19:17.915Z,48.70
2024-05-09T19:21:50.363Z,49.00
2024-05-09T19:24:22.722Z,49.20
2024-05-09T19:26:56.333Z,49.40
2024-05-09T19:29:28.720Z,49.60
2024-05-09T19:32:01.673Z,49.60
2024-05-09T19:34:34.097Z,49.90
2024-05-09T19:37:07.454Z,50.30
2024-05-09T19:39:39.827Z,50.90
2024-05-09T19:42:12.694Z,51.40
2024-05-09T19:44:45.083Z,51.50
2024-05-09T19:47:17.713Z,51.50
2024-05-09T19:49:50.104Z,51.80
2024-05-09T19:52:23.040Z,51.80
2024-05-09T19:54:55.513Z,52.00
2024-05-09T19:57:28.717Z,52.10
2024-05-09T19:59:59.446Z,52.70
2024-05-09T20:02:31.862Z,54.80
2024-05-09T20:05:05.434Z,53.30
2024-05-09T20:07:38.155Z,53.20
2024-05-09T20:10:20.092Z,53.20
2024-05-09T20:12:56.930Z,53.30
2024-05-09T20:15:30.069Z,53.50
2024-05-09T20:18:03.162Z,53.80
2024-05-09T20:20:39.486Z,54.30
2024-05-09T20:23:15.398Z,56.00
2024-05-09T20:25:48.525Z,54.40
2024-05-09T20:28:21.069Z,54.60
2024-05-09T20:30:54.316Z,54.90
2024-05-09T20:33:26.644Z,55.10
2024-05-09T20:36:01.804Z,55.40
2024-05-09T20:38:35.225Z,55.60
2024-05-09T20:41:07.846Z,55.90
2024-05-09T20:43:40.840Z,55.70
2024-05-09T20:46:15.393Z,55.90
2024-05-09T20:48:48.265Z,56.00
2024-05-09T20:51:21.180Z,56.00
2024-05-09T20:53:53.450Z,56.10
2024-05-09T20:56:25.891Z,56.20
2024-05-09T20:58:58.414Z,56.30
2024-05-09T21:01:30.783Z,56.20
2024-05-09T21:04:05.150Z,56.20
2024-05-09T21:06:37.934Z,56.70
2024-05-09T21:09:10.164Z,57.10
2024-05-09T21:11:42.550Z,58.00
2024-05-09T21:14:14.955Z,57.80
2024-05-09T21:16:47.528Z,58.20
2024-05-09T21:19:20.676Z,58.30
2024-05-09T21:21:53.760Z,58.70
2024-05-09T21:24:26.243Z,59.10
2024-05-09T21:26:58.615Z,59.10
2024-05-09T21:29:31.662Z,59.30
2024-05-09T21:32:04.059Z,59.30
2024-05-09T21:34:36.471Z,59.20
2024-05-09T21:37:09.269Z,59.30
2024-05-09T21:39:41.630Z,59.50
2024-05-09T21:42:13.931Z,59.50
2024-05-09T21:44:46.711Z,59.60
2024-05-09T21:47:19.150Z,59.60
2024-05-09T21:49:52.264Z,59.70
2024-05-09T21:52:24.700Z,59.80
2024-05-09T21:54:57.626Z,59.70
2024-05-09T21:57:30.178Z,59.90
2024-05-09T22:00:04.172Z,60.20
2024-05-09T22:02:37.495Z,60.30
2024-05-09T22:05:13.904Z,60.40
2024-05-09T22:07:47.143Z,60.00
2024-05-09T22:10:25.775Z,60.20
2024-05-09T22:13:02.694Z,60.10
2024-05-09T22:15:38.604Z,60.40
2024-05-09T22:18:12.497Z,60.60
2024-05-09T22:20:46.246Z,60.80
2024-05-09T22:23:19.258Z,61.00
2024-05-09T22:25:51.871Z,61.10
2024-05-09T22:28:24.110Z,61.30
2024-05-09T22:30:56.493Z,61.90
2024-05-09T22:33:28.809Z,61.40
2024-05-09T22:36:01.204Z,61.60
2024-05-09T22:38:34.327Z,61.80
2024-05-09T22:41:10.218Z,61.80
2024-05-09T22:43:42.441Z,61.60
2024-05-09T22:46:14.795Z,62.10
2024-05-09T22:48:47.353Z,61.80
2024-05-09T22:51:19.782Z,61.80
2024-05-09T22:53:52.021Z,61.90
2024-05-09T22:56:30.904Z,61.90
2024-05-09T22:59:04.328Z,61.90
2024-05-09T23:01:35.746Z,62.20
2024-05-09T23:04:08.259Z,63.70
2024-05-09T23:06:42.812Z,62.70
2024-05-09T23:09:15.246Z,62.50
2024-05-09T23:11:47.494Z,62.50
2024-05-09T23:14:19.790Z,62.70
2024-05-09T23:16:52.328Z,62.80
2024-05-09T23:19:24.595Z,63.00
2024-05-09T23:21:56.957Z,62.80
2024-05-09T23:24:29.277Z,63.40
2024-05-09T23:27:01.743Z,63.60
2024-05-09T23:29:34.170Z,63.90
2024-05-09T23:32:07.004Z,63.70
2024-05-09T23:34:39.404Z,63.70
2024-05-09T23:37:12.064Z,63.90
2024-05-09T23:39:44.389Z,63.90
2024-05-09T23:42:17.076Z,64.30
2024-05-09T23:44:52.983Z,64.30
2024-05-09T23:47:25.640Z,64.50
2024-05-09T23:49:58.012Z,64.60
2024-05-09T23:52:30.471Z,64.60
2024-05-09T23:55:02.746Z,64.50
2024-05-09T23:57:35.216Z,64.80
